Grapevine, Texas
Current Conditions -  °F | °C
As of 6:53 AM on Wednesday 22 Oct 2014 (Local Time) from KDFW Reporting Station
Haze Haze  
Wind Chill: 62°   Ceiling: Unl
Heat Index: 62°   Visibility: 6mi
Dew Point: 59°   Wind: 5mph
Humidity: 90%   Direction: 90°E
Pressure: 30.1"   Gusts: NA
Location:  32.94°N, 97.08°W
Report Text: KDFW 221153Z 09004KT 6SM BR CLR 17/15 A3010 RMK AO2 SLP186 T01670150 10194 20161 53012
Loading
Personal Weather Stations






























Interactive Weather Map
Tropical Storm Tracking
New forecast layout! Learn more

10-Day Weather Forecast

Advertisements
Track Severe Weather on mobile